sensor_id;sensor_type;location;lat;lon;timestamp;P1;durP1;ratioP1;P2;durP2;ratioP2
51995;SDS011;38010;53.264;6.592;2023-06-22T00:00:49;0.80;;;0.80;;
51995;SDS011;38010;53.264;6.592;2023-06-22T00:03:15;0.70;;;0.70;;
51995;SDS011;38010;53.264;6.592;2023-06-22T00:05:45;0.88;;;0.82;;
51995;SDS011;38010;53.264;6.592;2023-06-22T00:08:12;0.70;;;0.70;;
51995;SDS011;38010;53.264;6.592;2023-06-22T00:10:38;0.80;;;0.80;;
51995;SDS011;38010;53.264;6.592;2023-06-22T00:13:04;0.80;;;0.80;;
51995;SDS011;38010;53.264;6.592;2023-06-22T00:15:32;0.93;;;0.90;;
51995;SDS011;38010;53.264;6.592;2023-06-22T00:17:58;0.70;;;0.70;;
51995;SDS011;38010;53.264;6.592;2023-06-22T00:20:24;0.68;;;0.68;;
51995;SDS011;38010;53.264;6.592;2023-06-22T00:22:53;0.88;;;0.88;;
51995;SDS011;38010;53.264;6.592;2023-06-22T00:25:19;0.75;;;0.70;;
51995;SDS011;38010;53.264;6.592;2023-06-22T00:27:45;0.73;;;0.73;;
51995;SDS011;38010;53.264;6.592;2023-06-22T00:30:11;0.70;;;0.70;;
51995;SDS011;38010;53.264;6.592;2023-06-22T00:32:37;0.80;;;0.60;;
51995;SDS011;38010;53.264;6.592;2023-06-22T00:35:03;0.88;;;0.80;;
51995;SDS011;38010;53.264;6.592;2023-06-22T00:37:30;1.10;;;0.90;;
51995;SDS011;38010;53.264;6.592;2023-06-22T00:39:56;0.70;;;0.70;;
51995;SDS011;38010;53.264;6.592;2023-06-22T00:42:22;0.90;;;0.90;;
51995;SDS011;38010;53.264;6.592;2023-06-22T00:44:48;0.90;;;0.90;;
51995;SDS011;38010;53.264;6.592;2023-06-22T00:47:14;0.80;;;0.80;;
51995;SDS011;38010;53.264;6.592;2023-06-22T00:49:41;0.70;;;0.70;;
51995;SDS011;38010;53.264;6.592;2023-06-22T00:52:07;0.70;;;0.70;;
51995;SDS011;38010;53.264;6.592;2023-06-22T00:54:38;0.80;;;0.70;;
51995;SDS011;38010;53.264;6.592;2023-06-22T00:57:13;0.67;;;0.67;;
51995;SDS011;38010;53.264;6.592;2023-06-22T00:59:42;0.70;;;0.70;;
51995;SDS011;38010;53.264;6.592;2023-06-22T01:02:11;0.80;;;0.80;;
51995;SDS011;38010;53.264;6.592;2023-06-22T01:04:37;0.63;;;0.63;;
51995;SDS011;38010;53.264;6.592;2023-06-22T01:10:08;0.47;;;0.47;;
51995;SDS011;38010;53.264;6.592;2023-06-22T01:12:54;0.68;;;0.63;;
51995;SDS011;38010;53.264;6.592;2023-06-22T01:15:28;0.55;;;0.55;;
51995;SDS011;38010;53.264;6.592;2023-06-22T01:17:58;1.00;;;0.60;;
51995;SDS011;38010;53.264;6.592;2023-06-22T01:20:27;0.70;;;0.60;;
51995;SDS011;38010;53.264;6.592;2023-06-22T01:26:02;0.50;;;0.50;;
51995;SDS011;38010;53.264;6.592;2023-06-22T01:31:07;0.60;;;0.60;;
51995;SDS011;38010;53.264;6.592;2023-06-22T01:33:37;0.60;;;0.60;;
51995;SDS011;38010;53.264;6.592;2023-06-22T01:36:06;0.50;;;0.50;;
51995;SDS011;38010;53.264;6.592;2023-06-22T01:38:32;0.40;;;0.40;;
51995;SDS011;38010;53.264;6.592;2023-06-22T01:40:58;0.50;;;0.50;;
51995;SDS011;38010;53.264;6.592;2023-06-22T01:43:26;0.50;;;0.50;;
51995;SDS011;38010;53.264;6.592;2023-06-22T01:45:53;0.50;;;0.50;;
51995;SDS011;38010;53.264;6.592;2023-06-22T01:48:20;0.45;;;0.45;;
51995;SDS011;38010;53.264;6.592;2023-06-22T01:50:47;0.32;;;0.32;;
51995;SDS011;38010;53.264;6.592;2023-06-22T01:53:12;0.40;;;0.40;;
51995;SDS011;38010;53.264;6.592;2023-06-22T01:55:38;0.40;;;0.40;;
51995;SDS011;38010;53.264;6.592;2023-06-22T01:58:04;0.38;;;0.38;;
51995;SDS011;38010;53.264;6.592;2023-06-22T02:00:31;0.45;;;0.43;;
51995;SDS011;38010;53.264;6.592;2023-06-22T02:03:26;0.40;;;0.40;;
51995;SDS011;38010;53.264;6.592;2023-06-22T02:08:30;0.38;;;0.38;;
51995;SDS011;38010;53.264;6.592;2023-06-22T02:11:19;0.50;;;0.50;;
51995;SDS011;38010;53.264;6.592;2023-06-22T02:13:46;0.50;;;0.40;;
51995;SDS011;38010;53.264;6.592;2023-06-22T02:16:13;0.93;;;0.40;;
51995;SDS011;38010;53.264;6.592;2023-06-22T02:18:47;0.52;;;0.40;;
51995;SDS011;38010;53.264;6.592;2023-06-22T02:21:17;0.63;;;0.40;;
51995;SDS011;38010;53.264;6.592;2023-06-22T02:23:43;0.75;;;0.40;;
51995;SDS011;38010;53.264;6.592;2023-06-22T02:26:09;0.40;;;0.40;;
51995;SDS011;38010;53.264;6.592;2023-06-22T02:28:35;0.35;;;0.30;;
51995;SDS011;38010;53.264;6.592;2023-06-22T02:31:01;0.40;;;0.40;;
51995;SDS011;38010;53.264;6.592;2023-06-22T02:33:26;0.40;;;0.40;;
51995;SDS011;38010;53.264;6.592;2023-06-22T02:35:52;0.40;;;0.40;;
51995;SDS011;38010;53.264;6.592;2023-06-22T02:38:18;0.40;;;0.40;;
51995;SDS011;38010;53.264;6.592;2023-06-22T02:40:45;0.40;;;0.40;;
51995;SDS011;38010;53.264;6.592;2023-06-22T02:43:11;0.50;;;0.40;;
51995;SDS011;38010;53.264;6.592;2023-06-22T02:45:37;0.40;;;0.40;;
51995;SDS011;38010;53.264;6.592;2023-06-22T02:48:03;0.30;;;0.30;;
51995;SDS011;38010;53.264;6.592;2023-06-22T02:50:30;0.50;;;0.40;;
51995;SDS011;38010;53.264;6.592;2023-06-22T02:52:55;0.40;;;0.40;;
51995;SDS011;38010;53.264;6.592;2023-06-22T02:55:21;0.30;;;0.30;;
51995;SDS011;38010;53.264;6.592;2023-06-22T02:57:48;0.60;;;0.40;;
51995;SDS011;38010;53.264;6.592;2023-06-22T03:00:17;0.30;;;0.30;;
51995;SDS011;38010;53.264;6.592;2023-06-22T03:02:47;0.70;;;0.38;;
51995;SDS011;38010;53.264;6.592;2023-06-22T03:05:14;0.40;;;0.40;;
51995;SDS011;38010;53.264;6.592;2023-06-22T03:07:43;0.40;;;0.40;;
51995;SDS011;38010;53.264;6.592;2023-06-22T03:10:10;0.40;;;0.40;;
51995;SDS011;38010;53.264;6.592;2023-06-22T03:12:37;0.60;;;0.40;;
51995;SDS011;38010;53.264;6.592;2023-06-22T03:15:07;0.40;;;0.40;;
51995;SDS011;38010;53.264;6.592;2023-06-22T03:17:34;1.00;;;0.30;;
51995;SDS011;38010;53.264;6.592;2023-06-22T03:20:01;0.30;;;0.30;;
51995;SDS011;38010;53.264;6.592;2023-06-22T03:22:34;0.40;;;0.40;;
51995;SDS011;38010;53.264;6.592;2023-06-22T03:25:01;0.22;;;0.22;;
51995;SDS011;38010;53.264;6.592;2023-06-22T03:27:27;0.30;;;0.30;;
51995;SDS011;38010;53.264;6.592;2023-06-22T03:29:52;0.32;;;0.32;;
51995;SDS011;38010;53.264;6.592;2023-06-22T03:32:18;0.25;;;0.25;;
51995;SDS011;38010;53.264;6.592;2023-06-22T03:34:44;0.20;;;0.20;;
51995;SDS011;38010;53.264;6.592;2023-06-22T03:37:12;0.45;;;0.30;;
51995;SDS011;38010;53.264;6.592;2023-06-22T03:39:41;0.30;;;0.30;;
51995;SDS011;38010;53.264;6.592;2023-06-22T03:42:07;0.50;;;0.35;;
51995;SDS011;38010;53.264;6.592;2023-06-22T03:44:33;0.22;;;0.22;;
51995;SDS011;38010;53.264;6.592;2023-06-22T03:47:01;0.63;;;0.40;;
51995;SDS011;38010;53.264;6.592;2023-06-22T03:49:28;0.25;;;0.25;;
51995;SDS011;38010;53.264;6.592;2023-06-22T03:51:54;0.20;;;0.20;;
51995;SDS011;38010;53.264;6.592;2023-06-22T03:54:19;0.35;;;0.30;;
51995;SDS011;38010;53.264;6.592;2023-06-22T03:56:45;0.30;;;0.30;;
51995;SDS011;38010;53.264;6.592;2023-06-22T03:59:11;0.30;;;0.30;;
51995;SDS011;38010;53.264;6.592;2023-06-22T04:01:36;0.30;;;0.30;;
51995;SDS011;38010;53.264;6.592;2023-06-22T04:04:02;0.30;;;0.30;;
51995;SDS011;38010;53.264;6.592;2023-06-22T04:06:28;0.30;;;0.30;;
51995;SDS011;38010;53.264;6.592;2023-06-22T04:08:53;0.65;;;0.30;;
51995;SDS011;38010;53.264;6.592;2023-06-22T04:11:19;0.30;;;0.30;;
51995;SDS011;38010;53.264;6.592;2023-06-22T04:13:45;1.10;;;0.35;;
51995;SDS011;38010;53.264;6.592;2023-06-22T04:16:10;0.22;;;0.20;;
51995;SDS011;38010;53.264;6.592;2023-06-22T04:18:36;0.57;;;0.40;;
51995;SDS011;38010;53.264;6.592;2023-06-22T04:21:02;0.75;;;0.40;;
51995;SDS011;38010;53.264;6.592;2023-06-22T04:23:28;0.35;;;0.30;;
51995;SDS011;38010;53.264;6.592;2023-06-22T04:25:54;0.30;;;0.30;;
51995;SDS011;38010;53.264;6.592;2023-06-22T04:28:21;0.40;;;0.30;;
51995;SDS011;38010;53.264;6.592;2023-06-22T04:30:47;0.57;;;0.50;;
51995;SDS011;38010;53.264;6.592;2023-06-22T04:33:16;0.50;;;0.50;;
51995;SDS011;38010;53.264;6.592;2023-06-22T04:35:44;1.05;;;0.65;;
51995;SDS011;38010;53.264;6.592;2023-06-22T04:38:11;1.60;;;0.85;;
51995;SDS011;38010;53.264;6.592;2023-06-22T04:40:41;1.55;;;0.80;;
51995;SDS011;38010;53.264;6.592;2023-06-22T04:43:06;0.47;;;0.47;;
51995;SDS011;38010;53.264;6.592;2023-06-22T04:45:35;0.60;;;0.50;;
51995;SDS011;38010;53.264;6.592;2023-06-22T04:48:03;1.20;;;0.60;;
51995;SDS011;38010;53.264;6.592;2023-06-22T04:50:29;0.70;;;0.50;;
51995;SDS011;38010;53.264;6.592;2023-06-22T04:52:55;1.30;;;0.90;;
51995;SDS011;38010;53.264;6.592;2023-06-22T04:55:21;3.15;;;1.00;;
51995;SDS011;38010;53.264;6.592;2023-06-22T04:57:47;1.25;;;0.70;;
51995;SDS011;38010;53.264;6.592;2023-06-22T05:00:16;0.65;;;0.60;;
51995;SDS011;38010;53.264;6.592;2023-06-22T05:02:45;1.25;;;1.00;;
51995;SDS011;38010;53.264;6.592;2023-06-22T05:05:11;0.73;;;0.70;;
51995;SDS011;38010;53.264;6.592;2023-06-22T05:07:47;1.48;;;1.38;;
51995;SDS011;38010;53.264;6.592;2023-06-22T05:10:18;2.35;;;1.95;;
51995;SDS011;38010;53.264;6.592;2023-06-22T05:12:44;2.67;;;2.10;;
51995;SDS011;38010;53.264;6.592;2023-06-22T05:15:11;2.10;;;1.90;;
51995;SDS011;38010;53.264;6.592;2023-06-22T05:17:37;3.40;;;2.15;;
51995;SDS011;38010;53.264;6.592;2023-06-22T05:20:11;1.88;;;1.45;;
51995;SDS011;38010;53.264;6.592;2023-06-22T05:22:41;1.40;;;1.30;;
51995;SDS011;38010;53.264;6.592;2023-06-22T05:25:08;1.67;;;1.30;;
51995;SDS011;38010;53.264;6.592;2023-06-22T05:27:35;1.17;;;1.08;;
51995;SDS011;38010;53.264;6.592;2023-06-22T05:30:07;1.40;;;1.30;;
51995;SDS011;38010;53.264;6.592;2023-06-22T05:32:34;1.42;;;1.30;;
51995;SDS011;38010;53.264;6.592;2023-06-22T05:35:01;1.20;;;1.10;;
51995;SDS011;38010;53.264;6.592;2023-06-22T05:37:28;1.73;;;1.40;;
51995;SDS011;38010;53.264;6.592;2023-06-22T05:39:53;1.20;;;1.00;;
51995;SDS011;38010;53.264;6.592;2023-06-22T05:42:20;1.60;;;1.30;;
51995;SDS011;38010;53.264;6.592;2023-06-22T05:44:46;0.90;;;0.90;;
51995;SDS011;38010;53.264;6.592;2023-06-22T05:47:12;1.40;;;1.30;;
51995;SDS011;38010;53.264;6.592;2023-06-22T05:49:38;1.85;;;1.20;;
51995;SDS011;38010;53.264;6.592;2023-06-22T05:52:04;1.38;;;1.27;;
51995;SDS011;38010;53.264;6.592;2023-06-22T05:54:30;1.45;;;1.10;;
51995;SDS011;38010;53.264;6.592;2023-06-22T05:56:56;1.40;;;1.30;;
51995;SDS011;38010;53.264;6.592;2023-06-22T05:59:21;1.33;;;1.23;;
51995;SDS011;38010;53.264;6.592;2023-06-22T06:01:47;1.30;;;1.20;;
51995;SDS011;38010;53.264;6.592;2023-06-22T06:04:16;1.08;;;0.90;;
51995;SDS011;38010;53.264;6.592;2023-06-22T06:06:43;0.77;;;0.70;;
51995;SDS011;38010;53.264;6.592;2023-06-22T06:09:09;1.05;;;0.95;;
51995;SDS011;38010;53.264;6.592;2023-06-22T06:11:36;1.20;;;0.80;;
51995;SDS011;38010;53.264;6.592;2023-06-22T06:14:02;1.10;;;0.95;;
51995;SDS011;38010;53.264;6.592;2023-06-22T06:16:29;1.10;;;1.00;;
51995;SDS011;38010;53.264;6.592;2023-06-22T06:18:54;1.40;;;1.20;;
51995;SDS011;38010;53.264;6.592;2023-06-22T06:21:21;1.55;;;1.10;;
51995;SDS011;38010;53.264;6.592;2023-06-22T06:23:47;1.23;;;1.13;;
51995;SDS011;38010;53.264;6.592;2023-06-22T06:26:13;1.58;;;1.17;;
51995;SDS011;38010;53.264;6.592;2023-06-22T06:28:41;1.10;;;1.00;;
51995;SDS011;38010;53.264;6.592;2023-06-22T06:31:07;0.73;;;0.73;;
51995;SDS011;38010;53.264;6.592;2023-06-22T06:33:34;1.35;;;1.25;;
51995;SDS011;38010;53.264;6.592;2023-06-22T06:36:00;1.00;;;0.90;;
51995;SDS011;38010;53.264;6.592;2023-06-22T06:38:28;0.90;;;0.90;;
51995;SDS011;38010;53.264;6.592;2023-06-22T06:40:55;1.20;;;1.10;;
51995;SDS011;38010;53.264;6.592;2023-06-22T06:43:21;1.35;;;0.98;;
51995;SDS011;38010;53.264;6.592;2023-06-22T06:45:47;1.20;;;1.10;;
51995;SDS011;38010;53.264;6.592;2023-06-22T06:48:13;0.90;;;0.80;;
51995;SDS011;38010;53.264;6.592;2023-06-22T06:50:39;0.60;;;0.60;;
51995;SDS011;38010;53.264;6.592;2023-06-22T06:53:05;0.75;;;0.75;;
51995;SDS011;38010;53.264;6.592;2023-06-22T06:55:32;0.70;;;0.70;;
51995;SDS011;38010;53.264;6.592;2023-06-22T06:57:58;0.57;;;0.50;;
51995;SDS011;38010;53.264;6.592;2023-06-22T07:00:25;0.50;;;0.50;;
51995;SDS011;38010;53.264;6.592;2023-06-22T07:02:51;0.57;;;0.57;;
51995;SDS011;38010;53.264;6.592;2023-06-22T07:05:16;0.40;;;0.40;;
51995;SDS011;38010;53.264;6.592;2023-06-22T07:07:42;1.42;;;0.73;;
51995;SDS011;38010;53.264;6.592;2023-06-22T07:10:08;0.60;;;0.60;;
51995;SDS011;38010;53.264;6.592;2023-06-22T07:12:34;0.77;;;0.60;;
51995;SDS011;38010;53.264;6.592;2023-06-22T07:15:03;0.80;;;0.60;;
51995;SDS011;38010;53.264;6.592;2023-06-22T07:17:30;0.43;;;0.43;;
51995;SDS011;38010;53.264;6.592;2023-06-22T07:19:56;0.50;;;0.50;;
51995;SDS011;38010;53.264;6.592;2023-06-22T07:22:22;0.52;;;0.50;;
51995;SDS011;38010;53.264;6.592;2023-06-22T07:24:48;0.68;;;0.63;;
51995;SDS011;38010;53.264;6.592;2023-06-22T07:27:14;0.50;;;0.50;;
51995;SDS011;38010;53.264;6.592;2023-06-22T07:29:43;0.55;;;0.55;;
51995;SDS011;38010;53.264;6.592;2023-06-22T07:32:09;0.40;;;0.40;;
51995;SDS011;38010;53.264;6.592;2023-06-22T07:34:35;0.60;;;0.60;;
51995;SDS011;38010;53.264;6.592;2023-06-22T07:37:01;0.57;;;0.50;;
51995;SDS011;38010;53.264;6.592;2023-06-22T07:39:27;0.50;;;0.50;;
51995;SDS011;38010;53.264;6.592;2023-06-22T07:41:53;0.50;;;0.50;;
51995;SDS011;38010;53.264;6.592;2023-06-22T07:44:19;0.70;;;0.70;;
51995;SDS011;38010;53.264;6.592;2023-06-22T07:46:44;0.43;;;0.43;;
51995;SDS011;38010;53.264;6.592;2023-06-22T07:49:10;0.50;;;0.50;;
51995;SDS011;38010;53.264;6.592;2023-06-22T07:51:36;0.52;;;0.50;;
51995;SDS011;38010;53.264;6.592;2023-06-22T07:54:02;0.40;;;0.40;;
51995;SDS011;38010;53.264;6.592;2023-06-22T07:56:28;0.40;;;0.40;;
51995;SDS011;38010;53.264;6.592;2023-06-22T07:58:53;0.50;;;0.40;;
51995;SDS011;38010;53.264;6.592;2023-06-22T08:01:20;0.65;;;0.52;;
51995;SDS011;38010;53.264;6.592;2023-06-22T08:03:48;0.30;;;0.30;;
51995;SDS011;38010;53.264;6.592;2023-06-22T08:06:15;0.47;;;0.47;;
51995;SDS011;38010;53.264;6.592;2023-06-22T08:08:41;0.77;;;0.77;;
51995;SDS011;38010;53.264;6.592;2023-06-22T08:11:08;0.57;;;0.57;;
51995;SDS011;38010;53.264;6.592;2023-06-22T08:13:34;0.50;;;0.50;;
51995;SDS011;38010;53.264;6.592;2023-06-22T08:16:00;0.50;;;0.50;;
51995;SDS011;38010;53.264;6.592;2023-06-22T08:18:25;0.50;;;0.50;;
51995;SDS011;38010;53.264;6.592;2023-06-22T08:20:51;0.50;;;0.50;;
51995;SDS011;38010;53.264;6.592;2023-06-22T08:23:17;0.45;;;0.45;;
51995;SDS011;38010;53.264;6.592;2023-06-22T08:25:43;0.65;;;0.65;;
51995;SDS011;38010;53.264;6.592;2023-06-22T08:28:09;0.77;;;0.60;;
51995;SDS011;38010;53.264;6.592;2023-06-22T08:30:35;2.97;;;0.85;;
51995;SDS011;38010;53.264;6.592;2023-06-22T08:33:00;1.00;;;0.80;;
51995;SDS011;38010;53.264;6.592;2023-06-22T08:35:26;2.60;;;0.80;;
51995;SDS011;38010;53.264;6.592;2023-06-22T08:37:52;1.42;;;0.90;;
51995;SDS011;38010;53.264;6.592;2023-06-22T08:40:19;2.53;;;0.88;;
51995;SDS011;38010;53.264;6.592;2023-06-22T08:42:46;1.23;;;1.13;;
51995;SDS011;38010;53.264;6.592;2023-06-22T08:45:12;1.02;;;0.82;;
51995;SDS011;38010;53.264;6.592;2023-06-22T08:47:39;1.38;;;1.27;;
51995;SDS011;38010;53.264;6.592;2023-06-22T08:50:06;1.20;;;1.08;;
51995;SDS011;38010;53.264;6.592;2023-06-22T08:52:33;1.40;;;0.93;;
51995;SDS011;38010;53.264;6.592;2023-06-22T08:55:00;1.85;;;1.05;;
51995;SDS011;38010;53.264;6.592;2023-06-22T08:57:26;0.95;;;0.90;;
51995;SDS011;38010;53.264;6.592;2023-06-22T08:59:52;0.95;;;0.95;;
51995;SDS011;38010;53.264;6.592;2023-06-22T09:02:18;1.45;;;0.90;;
51995;SDS011;38010;53.264;6.592;2023-06-22T09:04:47;0.98;;;0.77;;
51995;SDS011;38010;53.264;6.592;2023-06-22T09:07:14;0.90;;;0.70;;
51995;SDS011;38010;53.264;6.592;2023-06-22T09:09:47;1.30;;;1.10;;
51995;SDS011;38010;53.264;6.592;2023-06-22T09:12:13;1.02;;;0.95;;
51995;SDS011;38010;53.264;6.592;2023-06-22T09:14:38;0.70;;;0.70;;
51995;SDS011;38010;53.264;6.592;2023-06-22T09:17:04;1.85;;;0.98;;
51995;SDS011;38010;53.264;6.592;2023-06-22T09:19:30;0.70;;;0.70;;
51995;SDS011;38010;53.264;6.592;2023-06-22T09:21:56;0.82;;;0.70;;
51995;SDS011;38010;53.264;6.592;2023-06-22T09:24:22;1.05;;;0.80;;
51995;SDS011;38010;53.264;6.592;2023-06-22T09:26:48;0.80;;;0.73;;
51995;SDS011;38010;53.264;6.592;2023-06-22T09:29:13;0.73;;;0.73;;
51995;SDS011;38010;53.264;6.592;2023-06-22T09:31:39;1.65;;;0.70;;
51995;SDS011;38010;53.264;6.592;2023-06-22T09:34:06;7.43;;;1.20;;
51995;SDS011;38010;53.264;6.592;2023-06-22T09:36:31;0.60;;;0.60;;
51995;SDS011;38010;53.264;6.592;2023-06-22T09:38:57;0.95;;;0.60;;
51995;SDS011;38010;53.264;6.592;2023-06-22T09:41:24;0.70;;;0.70;;
51995;SDS011;38010;53.264;6.592;2023-06-22T09:43:50;0.85;;;0.60;;
51995;SDS011;38010;53.264;6.592;2023-06-22T09:46:16;1.65;;;0.65;;
51995;SDS011;38010;53.264;6.592;2023-06-22T09:48:42;0.60;;;0.60;;
51995;SDS011;38010;53.264;6.592;2023-06-22T09:51:08;0.60;;;0.60;;
51995;SDS011;38010;53.264;6.592;2023-06-22T09:53:34;1.25;;;0.60;;
51995;SDS011;38010;53.264;6.592;2023-06-22T09:56:00;3.30;;;0.68;;
51995;SDS011;38010;53.264;6.592;2023-06-22T09:58:27;1.20;;;0.60;;
51995;SDS011;38010;53.264;6.592;2023-06-22T10:00:52;2.67;;;0.80;;
51995;SDS011;38010;53.264;6.592;2023-06-22T10:03:19;2.75;;;0.70;;
51995;SDS011;38010;53.264;6.592;2023-06-22T10:05:46;2.38;;;0.60;;
51995;SDS011;38010;53.264;6.592;2023-06-22T10:08:12;0.98;;;0.70;;
51995;SDS011;38010;53.264;6.592;2023-06-22T10:10:37;0.77;;;0.52;;
51995;SDS011;38010;53.264;6.592;2023-06-22T10:13:07;0.98;;;0.70;;
51995;SDS011;38010;53.264;6.592;2023-06-22T10:15:35;2.15;;;0.60;;
51995;SDS011;38010;53.264;6.592;2023-06-22T10:18:01;0.77;;;0.70;;
51995;SDS011;38010;53.264;6.592;2023-06-22T10:20:26;0.77;;;0.77;;
51995;SDS011;38010;53.264;6.592;2023-06-22T10:22:53;0.98;;;0.68;;
51995;SDS011;38010;53.264;6.592;2023-06-22T10:25:19;1.10;;;0.63;;
51995;SDS011;38010;53.264;6.592;2023-06-22T10:27:44;1.10;;;0.50;;
51995;SDS011;38010;53.264;6.592;2023-06-22T10:30:11;2.80;;;0.95;;
51995;SDS011;38010;53.264;6.592;2023-06-22T10:32:38;0.75;;;0.55;;
51995;SDS011;38010;53.264;6.592;2023-06-22T10:35:05;1.85;;;0.68;;
51995;SDS011;38010;53.264;6.592;2023-06-22T10:37:31;0.82;;;0.47;;
51995;SDS011;38010;53.264;6.592;2023-06-22T10:39:57;2.20;;;0.60;;
51995;SDS011;38010;53.264;6.592;2023-06-22T10:42:22;0.93;;;0.70;;
51995;SDS011;38010;53.264;6.592;2023-06-22T10:44:48;0.75;;;0.50;;
51995;SDS011;38010;53.264;6.592;2023-06-22T10:47:14;0.70;;;0.60;;
51995;SDS011;38010;53.264;6.592;2023-06-22T10:49:40;1.50;;;0.50;;
51995;SDS011;38010;53.264;6.592;2023-06-22T10:52:07;0.77;;;0.50;;
51995;SDS011;38010;53.264;6.592;2023-06-22T10:54:33;0.93;;;0.63;;
51995;SDS011;38010;53.264;6.592;2023-06-22T10:56:59;1.25;;;0.70;;
51995;SDS011;38010;53.264;6.592;2023-06-22T10:59:25;1.58;;;0.60;;
51995;SDS011;38010;53.264;6.592;2023-06-22T11:01:52;2.60;;;0.57;;
51995;SDS011;38010;53.264;6.592;2023-06-22T11:04:18;2.28;;;0.63;;
51995;SDS011;38010;53.264;6.592;2023-06-22T11:06:44;0.50;;;0.50;;
51995;SDS011;38010;53.264;6.592;2023-06-22T11:09:10;0.80;;;0.52;;
51995;SDS011;38010;53.264;6.592;2023-06-22T11:11:35;1.20;;;0.50;;
51995;SDS011;38010;53.264;6.592;2023-06-22T11:14:01;3.17;;;0.50;;
51995;SDS011;38010;53.264;6.592;2023-06-22T11:16:27;1.20;;;0.52;;
51995;SDS011;38010;53.264;6.592;2023-06-22T11:18:52;0.65;;;0.50;;
51995;SDS011;38010;53.264;6.592;2023-06-22T11:21:18;1.35;;;0.50;;
51995;SDS011;38010;53.264;6.592;2023-06-22T11:23:44;0.40;;;0.40;;
51995;SDS011;38010;53.264;6.592;2023-06-22T11:26:10;0.93;;;0.60;;
51995;SDS011;38010;53.264;6.592;2023-06-22T11:28:36;0.50;;;0.50;;
51995;SDS011;38010;53.264;6.592;2023-06-22T11:31:02;0.77;;;0.50;;
51995;SDS011;38010;53.264;6.592;2023-06-22T11:33:28;0.50;;;0.50;;
51995;SDS011;38010;53.264;6.592;2023-06-22T11:35:54;1.58;;;0.60;;
51995;SDS011;38010;53.264;6.592;2023-06-22T11:38:21;3.38;;;0.52;;
51995;SDS011;38010;53.264;6.592;2023-06-22T11:40:47;1.13;;;0.57;;
51995;SDS011;38010;53.264;6.592;2023-06-22T11:43:13;1.10;;;1.00;;
51995;SDS011;38010;53.264;6.592;2023-06-22T11:45:40;0.63;;;0.63;;
51995;SDS011;38010;53.264;6.592;2023-06-22T11:48:05;0.82;;;0.70;;
51995;SDS011;38010;53.264;6.592;2023-06-22T11:50:31;5.82;;;1.02;;
51995;SDS011;38010;53.264;6.592;2023-06-22T11:53:01;1.05;;;0.60;;
51995;SDS011;38010;53.264;6.592;2023-06-22T11:55:28;1.05;;;0.60;;
51995;SDS011;38010;53.264;6.592;2023-06-22T11:57:54;0.90;;;0.60;;
51995;SDS011;38010;53.264;6.592;2023-06-22T12:00:23;0.73;;;0.50;;
51995;SDS011;38010;53.264;6.592;2023-06-22T12:02:52;0.63;;;0.50;;
51995;SDS011;38010;53.264;6.592;2023-06-22T12:05:21;1.67;;;0.57;;
51995;SDS011;38010;53.264;6.592;2023-06-22T12:07:47;0.73;;;0.50;;
51995;SDS011;38010;53.264;6.592;2023-06-22T12:10:13;2.05;;;0.57;;
51995;SDS011;38010;53.264;6.592;2023-06-22T12:12:39;0.85;;;0.57;;
51995;SDS011;38010;53.264;6.592;2023-06-22T12:15:05;1.25;;;0.52;;
51995;SDS011;38010;53.264;6.592;2023-06-22T12:17:34;0.40;;;0.40;;
51995;SDS011;38010;53.264;6.592;2023-06-22T12:19:59;1.45;;;0.50;;
51995;SDS011;38010;53.264;6.592;2023-06-22T12:22:25;0.82;;;0.40;;
51995;SDS011;38010;53.264;6.592;2023-06-22T12:24:51;0.40;;;0.40;;
51995;SDS011;38010;53.264;6.592;2023-06-22T12:27:17;0.73;;;0.50;;
51995;SDS011;38010;53.264;6.592;2023-06-22T12:29:44;1.25;;;0.43;;
51995;SDS011;38010;53.264;6.592;2023-06-22T12:32:10;0.73;;;0.50;;
51995;SDS011;38010;53.264;6.592;2023-06-22T12:34:38;0.52;;;0.40;;
51995;SDS011;38010;53.264;6.592;2023-06-22T12:37:04;0.57;;;0.57;;
51995;SDS011;38010;53.264;6.592;2023-06-22T12:39:31;0.47;;;0.47;;
51995;SDS011;38010;53.264;6.592;2023-06-22T12:41:57;1.48;;;0.40;;
51995;SDS011;38010;53.264;6.592;2023-06-22T12:44:23;0.85;;;0.50;;
51995;SDS011;38010;53.264;6.592;2023-06-22T12:46:49;0.68;;;0.50;;
51995;SDS011;38010;53.264;6.592;2023-06-22T12:49:15;0.47;;;0.47;;
51995;SDS011;38010;53.264;6.592;2023-06-22T12:51:41;0.50;;;0.50;;
51995;SDS011;38010;53.264;6.592;2023-06-22T12:54:08;0.82;;;0.50;;
51995;SDS011;38010;53.264;6.592;2023-06-22T12:56:34;0.40;;;0.40;;
51995;SDS011;38010;53.264;6.592;2023-06-22T12:59:00;0.50;;;0.50;;
51995;SDS011;38010;53.264;6.592;2023-06-22T13:01:29;1.73;;;0.50;;
51995;SDS011;38010;53.264;6.592;2023-06-22T13:03:57;0.50;;;0.50;;
51995;SDS011;38010;53.264;6.592;2023-06-22T13:06:25;0.60;;;0.50;;
51995;SDS011;38010;53.264;6.592;2023-06-22T13:08:51;0.80;;;0.50;;
51995;SDS011;38010;53.264;6.592;2023-06-22T13:11:16;1.27;;;0.60;;
51995;SDS011;38010;53.264;6.592;2023-06-22T13:13:43;0.65;;;0.50;;
51995;SDS011;38010;53.264;6.592;2023-06-22T13:16:09;0.40;;;0.40;;
51995;SDS011;38010;53.264;6.592;2023-06-22T13:18:35;0.40;;;0.40;;
51995;SDS011;38010;53.264;6.592;2023-06-22T13:21:01;0.40;;;0.40;;
51995;SDS011;38010;53.264;6.592;2023-06-22T13:23:27;0.38;;;0.38;;
51995;SDS011;38010;53.264;6.592;2023-06-22T13:25:53;0.30;;;0.30;;
51995;SDS011;38010;53.264;6.592;2023-06-22T13:28:19;0.40;;;0.40;;
51995;SDS011;38010;53.264;6.592;2023-06-22T13:30:46;0.63;;;0.43;;
51995;SDS011;38010;53.264;6.592;2023-06-22T13:33:15;0.40;;;0.40;;
51995;SDS011;38010;53.264;6.592;2023-06-22T13:35:41;0.40;;;0.40;;
51995;SDS011;38010;53.264;6.592;2023-06-22T13:38:08;0.57;;;0.40;;
51995;SDS011;38010;53.264;6.592;2023-06-22T13:40:37;0.80;;;0.50;;
51995;SDS011;38010;53.264;6.592;2023-06-22T13:43:03;0.70;;;0.50;;
51995;SDS011;38010;53.264;6.592;2023-06-22T13:45:30;1.10;;;0.50;;
51995;SDS011;38010;53.264;6.592;2023-06-22T13:47:56;0.80;;;0.40;;
51995;SDS011;38010;53.264;6.592;2023-06-22T13:50:22;0.90;;;0.40;;
51995;SDS011;38010;53.264;6.592;2023-06-22T13:52:47;0.93;;;0.50;;
51995;SDS011;38010;53.264;6.592;2023-06-22T13:55:13;0.40;;;0.40;;
51995;SDS011;38010;53.264;6.592;2023-06-22T13:57:39;0.82;;;0.30;;
51995;SDS011;38010;53.264;6.592;2023-06-22T14:00:06;1.35;;;0.50;;
51995;SDS011;38010;53.264;6.592;2023-06-22T14:02:33;2.00;;;0.30;;
51995;SDS011;38010;53.264;6.592;2023-06-22T14:04:59;0.47;;;0.35;;
51995;SDS011;38010;53.264;6.592;2023-06-22T14:07:25;0.40;;;0.40;;
51995;SDS011;38010;53.264;6.592;2023-06-22T14:09:51;0.50;;;0.30;;
51995;SDS011;38010;53.264;6.592;2023-06-22T14:12:17;0.50;;;0.40;;
51995;SDS011;38010;53.264;6.592;2023-06-22T14:14:43;0.85;;;0.30;;
51995;SDS011;38010;53.264;6.592;2023-06-22T14:17:09;0.82;;;0.38;;
51995;SDS011;38010;53.264;6.592;2023-06-22T14:19:35;0.30;;;0.30;;
51995;SDS011;38010;53.264;6.592;2023-06-22T14:22:01;0.30;;;0.30;;
51995;SDS011;38010;53.264;6.592;2023-06-22T14:24:26;0.40;;;0.40;;
51995;SDS011;38010;53.264;6.592;2023-06-22T14:26:53;0.40;;;0.40;;
51995;SDS011;38010;53.264;6.592;2023-06-22T14:29:19;10.68;;;0.80;;
51995;SDS011;38010;53.264;6.592;2023-06-22T14:31:45;0.60;;;0.40;;
51995;SDS011;38010;53.264;6.592;2023-06-22T14:34:12;0.93;;;0.40;;
51995;SDS011;38010;53.264;6.592;2023-06-22T14:36:38;0.85;;;0.40;;
51995;SDS011;38010;53.264;6.592;2023-06-22T14:39:03;0.43;;;0.30;;
51995;SDS011;38010;53.264;6.592;2023-06-22T14:41:30;0.77;;;0.40;;
51995;SDS011;38010;53.264;6.592;2023-06-22T14:43:56;0.95;;;0.40;;
51995;SDS011;38010;53.264;6.592;2023-06-22T14:46:22;0.98;;;0.30;;
51995;SDS011;38010;53.264;6.592;2023-06-22T14:48:48;0.57;;;0.40;;
51995;SDS011;38010;53.264;6.592;2023-06-22T14:51:14;0.60;;;0.40;;
51995;SDS011;38010;53.264;6.592;2023-06-22T14:53:41;0.63;;;0.40;;
51995;SDS011;38010;53.264;6.592;2023-06-22T14:56:07;0.25;;;0.25;;